Time;durP1;ratioP1;P1;durP2;ratioP2;P2;SDS_P1;SDS_P2;PMS_P1;PMS_P2;Temp;Humidity;BMP_temperature;BMP_pressure;BME280_temperature;BME280_humidity;BME280_pressure;Samples;Min_cycle;Max_cycle;Signal;HPM_P1;HPM_P2
2021/12/08 00:00:35;;;;;;;9.95;3.40;;;2.50;99.90;;;;;;4861017;29;20049;-75
2021/12/08 00:03:03;;;;;;;7.23;3.03;;;2.40;99.90;;;;;;4861240;29;20053;-75
2021/12/08 00:05:30;;;;;;;9.32;3.08;;;2.40;99.90;;;;;;4859558;29;20455;-77
2021/12/08 00:07:58;;;;;;;11.10;3.60;;;1.50;99.90;;;;;;4860642;29;20414;-74
2021/12/08 00:13:09;;;;;;;13.88;3.45;;;2.30;99.90;;;;;;4860342;29;20559;-74
2021/12/08 00:15:38;;;;;;;8.60;2.80;;;2.20;99.90;;;;;;4860805;29;20419;-74
2021/12/08 00:18:07;;;;;;;11.65;3.53;;;2.10;99.90;;;;;;4860516;29;20089;-79
2021/12/08 00:20:35;;;;;;;9.38;2.92;;;2.10;99.90;;;;;;4860509;29;20424;-78
2021/12/08 00:23:02;;;;;;;8.48;2.75;;;2.10;99.90;;;;;;4859419;29;20497;-80
2021/12/08 00:25:29;;;;;;;10.73;2.88;;;2.10;99.90;;;;;;4860043;29;20056;-81
2021/12/08 00:27:55;;;;;;;7.85;2.63;;;2.10;99.90;;;;;;4860230;29;20054;-82
2021/12/08 00:30:21;;;;;;;7.55;2.90;;;2.10;99.90;;;;;;4860490;29;20053;-74
2021/12/08 00:32:48;;;;;;;9.38;3.00;;;2.10;99.90;;;;;;4863800;29;20453;-77
2021/12/08 00:35:14;;;;;;;13.13;2.78;;;2.00;99.90;;;;;;4862523;29;20054;-77
2021/12/08 00:37:40;;;;;;;9.77;3.67;;;2.10;99.90;;;;;;4847095;29;20411;-80
2021/12/08 00:40:10;;;;;;;16.40;3.33;;;2.10;99.90;;;;;;4864422;29;20079;-74
2021/12/08 00:42:36;;;;;;;9.50;2.60;;;2.10;99.90;;;;;;4863260;29;20090;-75
2021/12/08 00:45:04;;;;;;;8.90;3.10;;;2.90;99.90;;;;;;4862218;29;20128;-75
2021/12/08 00:47:30;;;;;;;8.68;2.53;;;2.10;99.90;;;;;;4863331;29;20508;-75
2021/12/08 00:49:56;;;;;;;7.50;2.67;;;2.10;99.90;;;;;;4862794;29;20089;-73
2021/12/08 00:52:24;;;;;;;8.88;2.83;;;2.10;99.90;;;;;;4863490;29;20850;-75
2021/12/08 00:54:50;;;;;;;11.48;3.03;;;2.20;99.90;;;;;;4863594;29;20049;-75
2021/12/08 00:57:16;;;;;;;9.13;3.10;;;2.20;99.90;;;;;;4863239;29;20533;-75
2021/12/08 00:59:41;;;;;;;9.98;2.97;;;2.20;99.90;;;;;;4846593;29;20469;-75
2021/12/08 01:02:07;;;;;;;8.60;2.75;;;2.20;99.90;;;;;;4846815;29;20060;-71
2021/12/08 01:04:35;;;;;;;8.00;2.28;;;2.20;99.90;;;;;;4846214;29;20103;-79
2021/12/08 01:07:02;;;;;;;7.85;2.22;;;2.20;99.90;;;;;;4865138;29;20045;-77
2021/12/08 01:09:28;;;;;;;7.15;2.25;;;2.20;99.90;;;;;;4865070;29;20056;-75
2021/12/08 01:11:57;;;;;;;9.82;2.78;;;2.40;99.90;;;;;;4863444;29;20054;-75
2021/12/08 01:14:23;;;;;;;7.10;2.50;;;2.20;99.90;;;;;;4864274;29;20056;-79
2021/12/08 01:16:48;;;;;;;10.95;2.63;;;2.20;99.90;;;;;;4863818;29;20060;-79
2021/12/08 01:19:16;;;;;;;12.85;2.78;;;2.30;99.90;;;;;;4864483;29;20049;-77
2021/12/08 01:21:41;;;;;;;9.90;2.78;;;3.40;99.90;;;;;;4864263;29;20444;-78
2021/12/08 01:24:07;;;;;;;6.05;2.08;;;2.30;99.90;;;;;;4863501;29;20049;-76
2021/12/08 01:26:33;;;;;;;9.15;2.72;;;2.30;99.90;;;;;;4863026;29;20518;-77
2021/12/08 01:28:58;;;;;;;5.13;2.08;;;2.40;99.90;;;;;;4860972;29;20460;-80
2021/12/08 01:31:25;;;;;;;8.35;2.47;;;2.40;99.90;;;;;;4862803;29;20057;-76
2021/12/08 01:33:51;;;;;;;5.57;2.08;;;2.40;99.90;;;;;;4862924;29;20435;-76
2021/12/08 01:36:16;;;;;;;7.95;2.15;;;2.40;99.90;;;;;;4862744;29;20053;-76
2021/12/08 01:38:43;;;;;;;5.60;2.08;;;2.50;99.90;;;;;;4862417;29;20057;-73
2021/12/08 01:41:09;;;;;;;10.23;2.40;;;3.30;99.90;;;;;;4862367;29;20056;-75
2021/12/08 01:45:56;;;;;;;6.07;2.40;;;2.50;99.90;;;;;;4861406;29;20041;-82
2021/12/08 01:46:28;;;;;;;;;;;2.50;99.90;;;;;;4862403;29;20068;-74
2021/12/08 01:48:53;;;;;;;8.60;2.38;;;2.50;99.90;;;;;;4861149;29;19920;-78
2021/12/08 01:51:19;;;;;;;11.50;2.80;;;2.50;99.90;;;;;;4846027;29;20402;-76
2021/12/08 01:53:49;;;;;;;6.95;2.20;;;2.50;99.90;;;;;;4862812;29;20051;-80
2021/12/08 01:56:18;;;;;;;4.72;1.95;;;2.50;99.90;;;;;;4861185;29;20049;-82
2021/12/08 01:58:44;;;;;;;6.70;2.33;;;2.50;99.90;;;;;;4862188;29;20490;-78
2021/12/08 02:01:12;;;;;;;6.07;2.20;;;3.00;99.90;;;;;;4862030;29;20041;-78
2021/12/08 02:03:39;;;;;;;7.00;2.25;;;2.50;99.90;;;;;;4845441;29;20146;-76
2021/12/08 02:06:07;;;;;;;6.25;2.20;;;2.60;99.90;;;;;;4861352;29;20391;-77
2021/12/08 02:08:34;;;;;;;8.13;2.25;;;2.60;99.90;;;;;;4862321;29;20511;-81
2021/12/08 02:11:02;;;;;;;8.63;2.97;;;2.60;99.90;;;;;;4860889;29;20078;-76
2021/12/08 02:13:31;;;;;;;6.95;2.85;;;3.60;99.90;;;;;;4862002;29;20050;-76
2021/12/08 02:15:59;;;;;;;7.78;2.55;;;2.70;99.90;;;;;;4861702;29;20574;-79
2021/12/08 02:18:25;;;;;;;10.35;3.05;;;2.80;99.90;;;;;;4861739;29;20064;-84
2021/12/08 02:20:51;;;;;;;7.43;2.10;;;2.80;99.90;;;;;;4860853;29;20061;-81
2021/12/08 02:23:18;;;;;;;6.70;2.72;;;2.80;99.90;;;;;;4862042;29;20085;-74
2021/12/08 02:25:46;;;;;;;6.32;2.67;;;2.80;99.90;;;;;;4845824;29;20069;-81
2021/12/08 02:28:12;;;;;;;8.52;2.88;;;3.80;99.90;;;;;;4860645;29;20061;-78
2021/12/08 02:30:47;;;;;;;8.65;2.70;;;2.80;99.90;;;;;;4845247;29;20497;-75
2021/12/08 02:47:10;;;;;;;7.75;2.80;;;2.80;99.90;;;;;;4861372;29;20117;-74
2021/12/08 02:49:37;;;;;;;7.68;2.72;;;2.80;99.90;;;;;;4859674;29;20089;-84
2021/12/08 02:52:06;;;;;;;7.95;2.90;;;2.80;99.90;;;;;;4861357;29;20049;-74
2021/12/08 02:54:39;;;;;;;7.03;2.70;;;2.80;99.90;;;;;;4860798;29;20056;-79
2021/12/08 02:57:05;;;;;;;11.30;3.88;;;2.80;99.90;;;;;;4861280;29;20053;-76
2021/12/08 02:59:30;;;;;;;7.43;3.88;;;2.80;99.90;;;;;;4861235;29;20045;-73
2021/12/08 03:01:56;;;;;;;12.00;3.00;;;2.80;99.90;;;;;;4861062;29;20419;-76
2021/12/08 03:04:22;;;;;;;9.55;3.30;;;2.80;99.90;;;;;;4844542;29;20440;-74
2021/12/08 03:06:48;;;;;;;7.05;3.00;;;2.80;99.90;;;;;;4861088;29;20089;-76
2021/12/08 03:09:14;;;;;;;11.82;3.00;;;2.80;99.90;;;;;;4861022;29;20411;-84
2021/12/08 03:11:39;;;;;;;9.65;3.20;;;3.40;99.90;;;;;;4860061;29;20182;-74
2021/12/08 03:14:12;;;;;;;9.00;2.90;;;2.80;99.90;;;;;;4844818;29;20046;-75
2021/12/08 03:16:43;;;;;;;7.63;3.50;;;2.80;99.90;;;;;;4859651;29;20053;-76
2021/12/08 03:19:09;;;;;;;7.97;2.85;;;2.80;99.90;;;;;;4860991;29;20498;-79
2021/12/08 03:21:35;;;;;;;8.68;3.53;;;2.80;99.90;;;;;;4860744;29;20053;-77
2021/12/08 03:26:33;;;;;;;9.00;3.30;;;2.90;99.90;;;;;;4861018;29;20104;-74
2021/12/08 03:29:05;;;;;;;8.85;2.72;;;2.90;99.90;;;;;;4844496;29;20416;-74
2021/12/08 03:31:38;;;;;;;8.20;2.60;;;2.90;99.90;;;;;;4861162;29;20447;-75
2021/12/08 03:34:03;;;;;;;8.57;3.22;;;2.90;99.90;;;;;;4860953;29;20045;-75
2021/12/08 03:36:29;;;;;;;10.70;3.50;;;3.00;99.90;;;;;;4860551;29;20056;-77
2021/12/08 03:38:55;;;;;;;8.57;3.42;;;3.10;99.90;;;;;;4860578;29;20088;-75
2021/12/08 03:41:21;;;;;;;7.40;2.90;;;3.10;99.90;;;;;;4860800;29;20057;-74
2021/12/08 03:43:47;;;;;;;8.25;3.40;;;3.10;99.90;;;;;;4843882;29;20188;-75
2021/12/08 03:46:16;;;;;;;7.53;2.97;;;3.20;99.90;;;;;;4860892;29;20087;-76
2021/12/08 03:48:47;;;;;;;9.30;3.10;;;3.90;99.90;;;;;;4860588;29;20486;-75
2021/12/08 03:51:13;;;;;;;7.30;3.05;;;3.20;99.90;;;;;;4860462;29;20045;-77
2021/12/08 03:53:39;;;;;;;9.40;3.50;;;3.20;99.90;;;;;;4860460;29;20050;-75
2021/12/08 03:56:05;;;;;;;10.00;3.38;;;3.30;99.90;;;;;;4844042;29;20085;-75
2021/12/08 03:58:31;;;;;;;9.30;3.00;;;3.30;99.90;;;;;;4860531;29;20077;-75
2021/12/08 04:00:58;;;;;;;8.32;2.95;;;4.10;99.90;;;;;;4860892;29;20045;-75
2021/12/08 04:03:29;;;;;;;11.95;3.50;;;3.30;99.90;;;;;;4860491;29;20100;-75
2021/12/08 04:05:57;;;;;;;6.95;2.83;;;3.30;99.90;;;;;;4846720;29;20443;-72
2021/12/08 04:08:31;;;;;;;17.60;3.45;;;3.30;99.90;;;;;;4861806;29;20516;-72
2021/12/08 04:10:59;;;;;;;11.65;3.40;;;3.30;99.90;;;;;;4864183;29;20049;-73
2021/12/08 04:13:33;;;;;;;8.20;3.67;;;3.30;99.90;;;;;;4847442;29;20056;-73
2021/12/08 04:15:59;;;;;;;7.55;3.83;;;3.40;99.90;;;;;;4864376;29;20081;-73
2021/12/08 04:18:25;;;;;;;11.32;3.92;;;3.50;99.90;;;;;;4847098;29;20061;-72
2021/12/08 04:20:57;;;;;;;11.70;4.57;;;3.50;99.90;;;;;;4864217;29;20045;-73
2021/12/08 04:23:26;;;;;;;11.90;3.60;;;3.50;99.90;;;;;;4846979;29;20136;-73
2021/12/08 04:25:55;;;;;;;8.57;3.85;;;3.50;99.90;;;;;;4847361;29;20045;-73
2021/12/08 04:28:27;;;;;;;8.20;3.40;;;4.40;99.90;;;;;;4847572;29;20056;-73
2021/12/08 04:31:08;;;;;;;10.20;3.35;;;3.60;99.90;;;;;;4847194;29;20057;-74
2021/12/08 04:33:35;;;;;;;9.93;3.92;;;3.60;99.90;;;;;;4863978;29;20053;-83
2021/12/08 04:36:02;;;;;;;8.68;3.92;;;3.60;99.90;;;;;;4863693;29;20514;-73
2021/12/08 04:38:36;;;;;;;11.65;3.90;;;4.50;99.90;;;;;;4863203;29;20090;-72
2021/12/08 04:41:07;;;;;;;11.35;4.53;;;3.70;99.90;;;;;;4847124;29;20054;-72
2021/12/08 04:50:03;;;;;;;;;;;4.90;99.90;;;;;;4863925;29;20049;-82
2021/12/08 04:52:25;;;;;;;8.68;4.18;;;3.80;99.90;;;;;;4863508;29;19931;-72
2021/12/08 05:06:20;;;;;;;8.75;3.97;;;3.90;99.90;;;;;;4863489;29;20068;-71
2021/12/08 05:08:50;;;;;;;12.82;5.28;;;3.90;99.90;;;;;;4863304;29;20485;-74
2021/12/08 05:11:39;;;;;;;11.98;5.65;;;3.90;99.90;;;;;;4862795;29;20050;-81
2021/12/08 05:14:16;;;;;;;10.75;5.45;;;4.00;99.90;;;;;;4862918;29;20478;-76
2021/12/08 05:16:46;;;;;;;10.98;5.22;;;4.00;99.90;;;;;;4845966;29;20050;-75
2021/12/08 05:19:16;;;;;;;13.02;5.78;;;4.10;99.90;;;;;;4863300;29;20398;-77
2021/12/08 05:21:47;;;;;;;11.93;5.63;;;4.10;99.90;;;;;;4863283;29;20410;-72
2021/12/08 05:24:39;;;;;;;12.90;5.78;;;4.90;99.90;;;;;;4863388;29;20049;-72
2021/12/08 05:27:17;;;;;;;12.25;5.72;;;4.10;99.90;;;;;;4862736;29;20056;-75
2021/12/08 05:29:53;;;;;;;15.00;5.97;;;4.10;99.90;;;;;;4846202;29;20128;-77
2021/12/08 05:32:19;;;;;;;14.35;5.53;;;4.30;99.90;;;;;;4861734;29;20045;-81
2021/12/08 05:34:46;;;;;;;13.82;5.40;;;4.20;99.90;;;;;;4862880;29;20109;-72
2021/12/08 05:37:15;;;;;;;10.65;4.78;;;4.20;99.90;;;;;;4846054;29;20574;-78
2021/12/08 05:39:41;;;;;;;13.38;6.07;;;4.20;99.90;;;;;;4861552;29;20094;-82
2021/12/08 05:42:14;;;;;;;12.35;5.45;;;4.20;99.90;;;;;;4845417;29;20081;-75
2021/12/08 05:44:41;;;;;;;11.23;5.15;;;4.20;99.90;;;;;;4862561;29;20046;-78
2021/12/08 05:47:15;;;;;;;12.13;5.30;;;4.20;99.90;;;;;;4862659;29;20049;-78
2021/12/08 05:49:41;;;;;;;11.25;4.95;;;4.20;99.90;;;;;;4845809;29;20494;-79
2021/12/08 05:52:08;;;;;;;11.05;5.43;;;4.80;99.90;;;;;;4861376;29;20113;-73
2021/12/08 05:54:37;;;;;;;11.25;5.28;;;4.20;99.90;;;;;;4862532;29;20486;-73
2021/12/08 05:57:14;;;;;;;9.25;4.40;;;4.20;99.90;;;;;;4861264;29;20053;-73
2021/12/08 05:59:41;;;;;;;14.38;5.22;;;4.20;99.90;;;;;;4862913;29;20045;-71
2021/12/08 06:02:13;;;;;;;14.40;4.30;;;4.20;99.90;;;;;;4862235;29;20086;-73
2021/12/08 06:04:40;;;;;;;10.25;3.85;;;4.20;99.90;;;;;;4862389;29;20511;-73
2021/12/08 06:07:07;;;;;;;12.95;4.50;;;5.50;99.90;;;;;;4862257;29;20501;-74
2021/12/08 06:09:35;;;;;;;10.30;4.50;;;4.20;99.90;;;;;;4862322;29;20049;-73
2021/12/08 06:12:02;;;;;;;13.15;4.47;;;4.20;99.90;;;;;;4862300;29;20073;-72
2021/12/08 06:14:32;;;;;;;9.35;4.40;;;4.30;99.90;;;;;;4861832;29;20057;-73
2021/12/08 06:17:01;;;;;;;10.13;4.68;;;4.30;99.90;;;;;;4861938;29;20050;-78
2021/12/08 06:19:27;;;;;;;11.32;4.07;;;4.40;99.90;;;;;;4861963;29;20096;-72
2021/12/08 06:21:52;;;;;;;10.95;4.45;;;4.40;99.90;;;;;;4862204;29;20079;-75
2021/12/08 06:24:21;;;;;;;11.10;5.05;;;4.40;99.90;;;;;;4845025;29;20096;-73
2021/12/08 06:26:48;;;;;;;11.18;3.90;;;4.40;99.90;;;;;;4862015;29;20396;-73
2021/12/08 06:29:15;;;;;;;10.75;4.28;;;4.30;99.90;;;;;;4860150;29;20507;-76
2021/12/08 06:31:41;;;;;;;10.25;3.58;;;4.40;99.90;;;;;;4860146;29;20049;-71
2021/12/08 06:34:08;;;;;;;10.43;4.18;;;4.40;99.90;;;;;;4861800;29;20049;-72
2021/12/08 06:36:43;;;;;;;9.80;4.32;;;4.40;99.90;;;;;;4860338;29;20077;-77
2021/12/08 06:39:16;;;;;;;8.48;3.75;;;4.40;99.90;;;;;;4844977;29;20494;-81
2021/12/08 06:41:46;;;;;;;10.55;3.85;;;4.30;99.90;;;;;;4861477;29;20045;-75
2021/12/08 06:44:20;;;;;;;14.43;5.35;;;4.30;99.90;;;;;;4861689;29;20052;-77
2021/12/08 06:46:47;;;;;;;14.82;5.53;;;4.30;99.90;;;;;;4844745;29;20064;-75
2021/12/08 06:49:15;;;;;;;12.75;5.55;;;4.30;99.90;;;;;;4861813;29;20141;-76
2021/12/08 06:51:45;;;;;;;10.32;4.60;;;4.30;99.90;;;;;;4861461;29;20494;-78
2021/12/08 06:54:19;;;;;;;11.43;5.45;;;4.30;99.90;;;;;;4861399;29;20057;-75
2021/12/08 06:56:53;;;;;;;12.52;4.43;;;4.20;99.90;;;;;;4845146;29;20049;-75
2021/12/08 06:59:22;;;;;;;12.38;5.45;;;5.00;99.90;;;;;;4861294;29;20408;-76
2021/12/08 07:02:07;;;;;;;12.35;4.88;;;4.20;99.90;;;;;;4861037;29;20053;-73
2021/12/08 07:04:53;;;;;;;12.55;4.43;;;4.10;99.90;;;;;;4861278;29;20494;-75
2021/12/08 07:07:25;;;;;;;12.45;4.93;;;4.30;99.90;;;;;;4861150;29;20050;-76
2021/12/08 07:09:53;;;;;;;9.65;4.70;;;4.60;99.90;;;;;;4844429;29;20045;-75
2021/12/08 07:12:26;;;;;;;12.15;5.18;;;4.00;99.90;;;;;;4861108;29;20061;-75
2021/12/08 07:15:18;;;;;;;12.00;4.85;;;4.00;99.90;;;;;;4844534;29;20628;-77
2021/12/08 07:17:49;;;;;;;14.30;6.13;;;4.00;99.90;;;;;;4821990;29;20515;-76
2021/12/08 07:23:04;;;;;;;11.95;4.35;;;4.00;99.90;;;;;;4822532;29;20331;-76
2021/12/08 07:25:31;;;;;;;12.27;3.97;;;4.10;99.90;;;;;;4822083;29;20139;-76
2021/12/08 07:27:57;;;;;;;13.63;4.28;;;4.10;99.90;;;;;;4807584;29;21066;-74
2021/12/08 07:30:30;;;;;;;9.52;4.25;;;4.20;99.90;;;;;;4822376;29;20058;-75
2021/12/08 07:32:56;;;;;;;12.00;4.28;;;4.20;99.90;;;;;;4822010;29;20046;-75
2021/12/08 07:35:32;;;;;;;11.85;4.10;;;4.20;99.90;;;;;;4809380;29;20058;-78
2021/12/08 07:37:59;;;;;;;8.15;3.75;;;4.30;99.90;;;;;;4825894;29;20133;-83
2021/12/08 07:40:30;;;;;;;9.25;3.78;;;4.20;99.90;;;;;;4826770;29;20066;-78
2021/12/08 07:43:03;;;;;;;10.15;4.18;;;4.20;99.90;;;;;;4811240;29;20062;-83
2021/12/08 07:45:54;;;;;;;11.77;4.03;;;4.20;99.90;;;;;;4824501;29;20516;-84
2021/12/08 07:48:29;;;;;;;7.93;3.20;;;5.10;99.90;;;;;;4807057;29;20063;-80
2021/12/08 07:51:00;;;;;;;10.43;3.95;;;4.10;99.90;;;;;;4822239;29;20058;-78
2021/12/08 07:53:28;;;;;;;10.48;3.25;;;5.10;99.90;;;;;;4821742;29;20142;-73
2021/12/08 07:56:02;;;;;;;10.30;4.25;;;4.10;99.90;;;;;;4839822;29;20564;-79
2021/12/08 07:58:29;;;;;;;11.35;3.47;;;4.10;99.90;;;;;;4857771;29;20255;-75
2021/12/08 08:01:02;;;;;;;8.13;3.35;;;4.10;99.90;;;;;;4857465;29;20085;-78
2021/12/08 08:03:32;;;;;;;10.57;3.00;;;4.10;99.90;;;;;;4857326;29;20061;-77
2021/12/08 08:06:00;;;;;;;10.88;4.13;;;4.10;99.90;;;;;;4857227;29;20049;-72
2021/12/08 08:08:30;;;;;;;7.72;3.22;;;4.10;99.90;;;;;;4856673;29;20586;-76
2021/12/08 08:11:07;;;;;;;12.00;3.90;;;4.20;99.90;;;;;;4857442;29;20427;-77
2021/12/08 08:13:33;;;;;;;10.13;3.47;;;4.20;99.90;;;;;;4839371;29;20163;-77
2021/12/08 08:16:05;;;;;;;10.60;3.67;;;4.20;99.90;;;;;;4857954;29;20403;-72
2021/12/08 08:18:38;;;;;;;9.70;3.65;;;4.20;99.90;;;;;;4859562;29;20459;-76
2021/12/08 08:21:09;;;;;;;10.95;4.53;;;4.30;99.90;;;;;;4858980;29;20041;-80
2021/12/08 08:23:35;;;;;;;10.85;3.60;;;4.30;99.90;;;;;;4859654;29;20049;-76
2021/12/08 08:26:05;;;;;;;8.05;2.88;;;4.30;99.90;;;;;;4857658;29;20102;-76
2021/12/08 08:28:32;;;;;;;10.77;3.83;;;4.30;99.90;;;;;;4859680;29;20045;-74
2021/12/08 08:31:05;;;;;;;10.40;3.22;;;4.30;99.90;;;;;;4859314;29;20102;-79
2021/12/08 08:33:34;;;;;;;9.43;3.92;;;4.30;99.90;;;;;;4858959;29;20406;-70
2021/12/08 08:36:04;;;;;;;10.18;3.00;;;4.30;99.90;;;;;;4858542;29;20049;-76
2021/12/08 08:38:34;;;;;;;11.60;3.35;;;4.30;99.90;;;;;;4824624;29;20473;-86
2021/12/08 08:41:05;;;;;;;11.98;3.30;;;4.30;99.90;;;;;;4847337;29;20057;-89
2021/12/08 08:43:31;;;;;;;11.52;3.58;;;4.30;99.90;;;;;;4858723;29;20041;-73
2021/12/08 08:46:09;;;;;;;8.13;3.25;;;4.30;99.90;;;;;;4856590;29;20060;-74
2021/12/08 08:48:41;;;;;;;10.77;3.05;;;5.00;99.90;;;;;;4846083;29;20044;-79
2021/12/08 08:51:25;;;;;;;10.73;3.00;;;4.40;99.90;;;;;;4855564;29;20144;-76
2021/12/08 08:53:54;;;;;;;10.43;3.13;;;4.50;99.90;;;;;;4844325;29;20061;-77
2021/12/08 08:56:24;;;;;;;9.52;2.70;;;4.90;99.90;;;;;;4858293;29;20041;-76
2021/12/08 08:59:00;;;;;;;8.23;3.05;;;5.10;99.90;;;;;;4849972;29;20046;-74
2021/12/08 09:01:30;;;;;;;14.40;3.15;;;4.60;99.90;;;;;;4841768;29;20054;-72
2021/12/08 09:04:03;;;;;;;9.57;2.90;;;4.80;99.90;;;;;;4843364;29;20502;-76
2021/12/08 09:06:32;;;;;;;;;;;4.60;99.90;;;;;;4842914;29;20106;-81
2021/12/08 09:09:02;;;;;;;8.05;2.50;;;4.70;99.90;;;;;;4853845;29;19928;-80
2021/12/08 09:11:36;;;;;;;5.88;2.17;;;4.60;99.90;;;;;;4836194;29;20054;-78
2021/12/08 09:14:13;;;;;;;6.65;2.28;;;4.60;99.90;;;;;;4840475;29;20582;-84
2021/12/08 09:17:17;;;;;;;10.60;2.67;;;5.30;99.90;;;;;;4842836;29;20490;-74
2021/12/08 09:20:06;;;;;;;10.98;2.38;;;4.70;99.90;;;;;;4857281;29;20467;-76
2021/12/08 09:22:54;;;;;;;11.52;2.35;;;4.80;99.90;;;;;;4841028;29;20478;-76
2021/12/08 09:25:30;;;;;;;8.75;2.10;;;4.80;99.90;;;;;;4851980;29;20045;-74
2021/12/08 09:28:00;;;;;;;10.23;2.35;;;4.90;99.90;;;;;;4849400;29;20079;-74
2021/12/08 09:30:37;;;;;;;10.18;2.47;;;5.00;99.90;;;;;;4850795;29;20042;-75
2021/12/08 09:33:11;;;;;;;7.72;2.05;;;5.10;99.90;;;;;;4847214;29;20183;-74
2021/12/08 09:35:43;;;;;;;9.80;2.45;;;5.10;99.90;;;;;;4844059;29;20105;-81
2021/12/08 09:38:20;;;;;;;7.18;2.10;;;5.20;99.90;;;;;;4847581;29;20062;-82
2021/12/08 09:41:00;;;;;;;9.65;2.15;;;5.30;99.90;;;;;;4860051;29;20061;-76
2021/12/08 09:43:33;;;;;;;9.57;2.60;;;5.30;99.90;;;;;;4857753;29;20410;-79
2021/12/08 09:46:12;;;;;;;7.07;1.98;;;5.40;99.90;;;;;;4858000;29;20132;-80
2021/12/08 09:48:41;;;;;;;12.10;2.60;;;5.50;99.90;;;;;;4856103;29;20339;-73
2021/12/08 09:51:07;;;;;;;7.45;2.00;;;5.50;99.90;;;;;;4842120;29;20113;-74
2021/12/08 09:53:34;;;;;;;10.25;1.88;;;5.50;99.90;;;;;;4857190;29;20550;-71
2021/12/08 09:56:01;;;;;;;7.35;1.92;;;6.30;99.90;;;;;;4857640;29;20085;-72
2021/12/08 09:58:26;;;;;;;8.55;2.30;;;5.50;99.90;;;;;;4852006;29;20145;-72
2021/12/08 10:00:57;;;;;;;8.93;2.20;;;5.50;99.90;;;;;;4841228;29;20579;-74
2021/12/08 10:03:24;;;;;;;10.80;1.92;;;5.50;99.90;;;;;;4841206;29;20077;-69
2021/12/08 10:05:50;;;;;;;5.25;1.80;;;5.40;99.90;;;;;;4840673;29;20038;-71
2021/12/08 10:08:17;;;;;;;8.35;1.80;;;5.90;99.90;;;;;;4844889;29;20050;-71
2021/12/08 10:10:46;;;;;;;9.13;2.13;;;5.40;99.90;;;;;;4855988;29;20174;-73
2021/12/08 10:13:13;;;;;;;7.78;2.10;;;5.40;99.90;;;;;;4848819;29;20087;-72
2021/12/08 10:15:39;;;;;;;9.43;2.00;;;5.50;99.90;;;;;;4850366;29;20057;-72
2021/12/08 10:18:06;;;;;;;9.55;2.90;;;5.50;99.90;;;;;;4847487;29;20442;-70
2021/12/08 10:20:41;;;;;;;6.03;2.20;;;5.50;99.90;;;;;;4850456;29;20054;-72
2021/12/08 10:23:28;;;;;;;6.80;2.28;;;5.70;99.90;;;;;;4852030;29;20137;-70
2021/12/08 10:26:01;;;;;;;10.02;2.90;;;5.70;99.90;;;;;;4848845;29;20061;-72
2021/12/08 10:28:39;;;;;;;12.32;2.60;;;5.80;99.90;;;;;;4846556;29;20098;-74
2021/12/08 10:31:08;;;;;;;11.20;2.10;;;5.90;99.90;;;;;;4841510;29;20100;-74
2021/12/08 10:34:11;;;;;;;12.95;2.47;;;6.00;99.90;;;;;;4840997;29;20053;-72
2021/12/08 10:36:56;;;;;;;;;;;5.80;99.90;;;;;;4847957;29;20515;-75
2021/12/08 10:39:35;;;;;;;9.38;2.60;;;5.80;99.90;;;;;;4840701;29;19967;-74
2021/12/08 10:42:11;;;;;;;13.05;3.30;;;5.80;99.90;;;;;;4840046;29;20050;-80
2021/12/08 10:44:49;;;;;;;8.93;2.08;;;5.80;99.90;;;;;;4840844;29;20053;-73
2021/12/08 10:47:21;;;;;;;12.23;2.50;;;5.80;99.90;;;;;;4839008;29;20130;-72
2021/12/08 10:55:07;;;;;;;15.38;2.78;;;5.90;99.90;;;;;;4847913;29;20161;-76
2021/12/08 10:57:37;;;;;;;7.32;2.22;;;5.90;99.90;;;;;;4846442;29;20058;-71
2021/12/08 11:00:21;;;;;;;9.65;1.98;;;5.90;99.90;;;;;;4847855;29;20054;-78
2021/12/08 11:03:06;;;;;;;10.60;2.10;;;6.00;99.90;;;;;;4856984;29;20057;-71
2021/12/08 11:05:56;;;;;;;10.90;2.10;;;6.00;99.90;;;;;;4839904;29;20129;-70
2021/12/08 11:08:24;;;;;;;8.48;2.30;;;6.00;99.90;;;;;;4849489;29;20072;-71
2021/12/08 11:10:58;;;;;;;6.93;2.17;;;6.10;99.90;;;;;;4850465;29;20101;-71
2021/12/08 11:13:45;;;;;;;9.70;2.17;;;6.10;99.90;;;;;;4856252;29;20061;-72
2021/12/08 11:16:31;;;;;;;8.48;2.30;;;6.20;99.90;;;;;;4856022;29;20073;-79
2021/12/08 11:19:13;;;;;;;10.95;2.50;;;6.20;99.90;;;;;;4846838;29;20505;-81
2021/12/08 11:21:42;;;;;;;10.23;2.97;;;6.20;99.90;;;;;;4853236;29;20132;-77
2021/12/08 11:24:37;;;;;;;10.18;2.33;;;6.20;99.90;;;;;;4833173;29;20068;-76
2021/12/08 11:27:07;;;;;;;10.30;3.50;;;6.20;99.90;;;;;;4839111;29;20514;-72
2021/12/08 11:29:36;;;;;;;11.05;2.72;;;6.30;99.90;;;;;;4863805;29;20057;-72
2021/12/08 11:32:05;;;;;;;8.27;2.60;;;6.20;99.90;;;;;;4847845;29;20411;-70
2021/12/08 11:34:34;;;;;;;5.80;2.13;;;6.30;99.90;;;;;;4839678;29;20137;-72
2021/12/08 11:37:03;;;;;;;5.78;2.10;;;6.30;99.90;;;;;;4839295;29;20045;-72
2021/12/08 11:39:34;;;;;;;8.68;2.53;;;6.30;99.90;;;;;;4839602;29;20074;-72
2021/12/08 11:42:08;;;;;;;9.00;2.70;;;6.70;99.90;;;;;;4840511;29;20462;-74
2021/12/08 11:44:41;;;;;;;10.98;2.20;;;6.30;99.90;;;;;;4823272;29;20064;-72
2021/12/08 11:47:20;;;;;;;6.65;2.45;;;6.30;99.90;;;;;;4837851;29;20062;-72
2021/12/08 11:49:56;;;;;;;11.75;3.10;;;6.20;99.90;;;;;;4839551;29;20045;-71
2021/12/08 11:52:25;;;;;;;4.70;1.80;;;6.10;99.90;;;;;;4839762;29;20098;-71
2021/12/08 11:55:03;;;;;;;7.25;2.50;;;6.20;99.90;;;;;;4824248;29;20050;-74
2021/12/08 11:57:36;;;;;;;4.97;1.60;;;6.20;99.90;;;;;;4838035;29;20165;-72
2021/12/08 12:00:01;;;;;;;5.65;1.58;;;7.20;99.90;;;;;;4840459;29;20046;-72
2021/12/08 12:02:31;;;;;;;7.03;1.90;;;6.20;99.90;;;;;;4851333;29;20057;-72
2021/12/08 12:04:58;;;;;;;7.65;2.10;;;6.10;99.90;;;;;;4825328;29;20069;-71
2021/12/08 12:07:24;;;;;;;7.43;2.00;;;6.70;99.90;;;;;;4839967;29;20232;-72
2021/12/08 12:09:50;;;;;;;9.02;1.90;;;6.10;99.90;;;;;;4846564;29;20471;-70
2021/12/08 12:12:17;;;;;;;6.32;2.10;;;5.90;99.90;;;;;;4848459;29;20064;-72
2021/12/08 12:14:43;;;;;;;9.55;2.33;;;5.90;99.90;;;;;;4856681;29;20057;-75
2021/12/08 12:17:10;;;;;;;7.68;2.40;;;5.90;99.90;;;;;;4852560;29;20594;-72
2021/12/08 12:19:46;;;;;;;10.52;2.42;;;5.90;99.90;;;;;;4839698;29;20141;-73
2021/12/08 12:22:33;;;;;;;4.82;1.73;;;6.00;99.90;;;;;;4839357;29;20056;-73
2021/12/08 12:25:20;;;;;;;6.28;1.83;;;5.90;99.90;;;;;;4837881;29;20114;-75
2021/12/08 12:28:08;;;;;;;6.30;1.80;;;5.90;99.90;;;;;;4851669;29;20054;-72
2021/12/08 12:30:42;;;;;;;7.30;2.85;;;5.90;99.90;;;;;;4859188;29;20057;-73
2021/12/08 12:33:20;;;;;;;7.68;2.00;;;5.90;99.90;;;;;;4845106;29;20046;-77
2021/12/08 12:35:55;;;;;;;8.60;2.38;;;6.00;99.90;;;;;;4849748;29;20055;-72
2021/12/08 12:38:38;;;;;;;8.27;2.67;;;5.90;99.90;;;;;;4845474;29;20065;-74
2021/12/08 12:41:23;;;;;;;9.70;2.05;;;5.90;99.90;;;;;;4859191;29;20043;-75
2021/12/08 12:43:50;;;;;;;6.72;1.83;;;5.90;99.90;;;;;;4827959;29;20102;-77
2021/12/08 12:46:16;;;;;;;6.20;3.05;;;5.90;99.90;;;;;;4846736;29;20097;-72
2021/12/08 12:48:50;;;;;;;10.95;2.13;;;6.20;99.90;;;;;;4851958;29;20045;-74
2021/12/08 12:51:16;;;;;;;9.57;1.85;;;5.90;99.90;;;;;;4832784;29;20475;-72
2021/12/08 12:53:56;;;;;;;8.57;1.92;;;6.40;99.90;;;;;;4850836;29;20088;-76
2021/12/08 12:56:34;;;;;;;10.10;1.83;;;5.90;99.90;;;;;;4857003;29;20041;-75
2021/12/08 12:59:14;;;;;;;7.88;2.20;;;5.90;99.90;;;;;;4856445;29;20053;-75
2021/12/08 13:01:46;;;;;;;10.10;2.40;;;5.90;99.90;;;;;;4850941;29;20474;-73
2021/12/08 13:04:20;;;;;;;9.88;2.45;;;5.90;99.90;;;;;;4854884;29;20077;-75
2021/12/08 13:06:57;;;;;;;6.25;1.70;;;5.90;99.90;;;;;;4858812;29;20410;-73
2021/12/08 13:09:35;;;;;;;7.38;1.67;;;5.90;99.90;;;;;;4856808;29;20509;-73
2021/12/08 13:12:27;;;;;;;5.15;1.80;;;5.90;99.90;;;;;;4842744;29;20085;-75
2021/12/08 13:15:13;;;;;;;5.88;1.70;;;5.90;99.90;;;;;;4841662;29;20585;-74
2021/12/08 13:18:01;;;;;;;6.70;1.65;;;5.90;99.90;;;;;;4832955;29;20503;-73
2021/12/08 13:20:28;;;;;;;9.68;2.63;;;5.90;99.90;;;;;;4849961;29;20046;-77
2021/12/08 13:23:01;;;;;;;6.47;2.65;;;5.90;99.90;;;;;;4859320;29;20885;-75
2021/12/08 13:28:27;;;;;;;6.10;2.03;;;5.80;99.90;;;;;;4849383;29;20078;-73
2021/12/08 13:30:54;;;;;;;;;;;5.80;99.90;;;;;;4858059;29;20057;-72
2021/12/08 13:33:27;;;;;;;5.05;1.67;;;5.80;99.90;;;;;;4857310;29;19939;-74
2021/12/08 13:35:54;;;;;;;4.85;2.10;;;5.80;99.90;;;;;;4858010;29;20053;-71
2021/12/08 13:38:20;;;;;;;7.95;1.75;;;5.80;99.90;;;;;;4853039;29;20066;-73
2021/12/08 13:40:50;;;;;;;5.93;1.80;;;5.80;99.90;;;;;;4842403;29;20054;-73
2021/12/08 13:43:32;;;;;;;8.57;2.05;;;5.80;99.90;;;;;;4853969;29;20056;-71
2021/12/08 13:45:58;;;;;;;8.23;1.70;;;6.40;99.90;;;;;;4856785;29;20050;-73
2021/12/08 13:48:24;;;;;;;9.35;2.25;;;5.80;99.90;;;;;;4824090;29;20053;-75
2021/12/08 13:50:51;;;;;;;7.93;1.67;;;5.80;99.90;;;;;;4841492;29;20054;-73
2021/12/08 13:53:16;;;;;;;7.75;1.70;;;5.80;99.90;;;;;;4849088;29;20046;-74
2021/12/08 13:55:48;;;;;;;7.60;1.70;;;6.10;99.90;;;;;;4850914;29;20033;-75
2021/12/08 13:58:19;;;;;;;6.45;1.88;;;5.80;99.90;;;;;;4826800;29;20108;-72
2021/12/08 14:00:52;;;;;;;6.85;1.55;;;5.70;99.90;;;;;;4853807;29;20046;-73
2021/12/08 14:03:34;;;;;;;4.15;1.48;;;6.50;99.90;;;;;;4843115;29;20045;-73